createdAt,value
2017-12-30T00:01:08.122Z,4.60
2017-12-30T00:03:35.707Z,4.60
2017-12-30T00:06:03.274Z,4.60
2017-12-30T00:08:30.864Z,4.60
2017-12-30T00:10:58.397Z,4.60
2017-12-30T00:13:26.003Z,4.60
2017-12-30T00:15:54.312Z,4.60
2017-12-30T00:18:22.685Z,4.50
2017-12-30T00:20:50.245Z,4.50
2017-12-30T00:23:17.802Z,4.60
2017-12-30T00:25:45.856Z,4.50
2017-12-30T00:28:13.397Z,4.50
2017-12-30T00:30:40.960Z,4.50
2017-12-30T00:33:08.507Z,4.50
2017-12-30T00:35:36.073Z,4.40
2017-12-30T00:38:03.629Z,4.30
2017-12-30T00:40:31.983Z,4.40
2017-12-30T00:42:59.574Z,4.40
2017-12-30T00:45:27.102Z,4.40
2017-12-30T00:47:56.159Z,4.40
2017-12-30T00:50:23.729Z,4.40
2017-12-30T00:52:52.041Z,4.40
2017-12-30T00:55:20.337Z,4.50
2017-12-30T00:57:48.673Z,4.40
2017-12-30T01:00:16.984Z,4.40
2017-12-30T01:02:44.516Z,4.40
2017-12-30T01:05:12.055Z,4.40
2017-12-30T01:07:39.635Z,4.30
2017-12-30T01:10:07.175Z,4.20
2017-12-30T01:12:35.478Z,4.10
2017-12-30T01:15:03.139Z,4.00
2017-12-30T01:17:30.702Z,4.00
2017-12-30T01:19:58.255Z,3.90
2017-12-30T01:22:25.776Z,3.80
2017-12-30T01:24:54.104Z,3.60
2017-12-30T01:27:21.637Z,3.60
2017-12-30T01:29:49.183Z,3.70
2017-12-30T01:32:16.705Z,3.80
2017-12-30T01:34:44.306Z,3.80
2017-12-30T01:37:12.586Z,3.80
2017-12-30T01:39:40.144Z,3.80
2017-12-30T01:42:07.671Z,3.80
2017-12-30T01:44:35.985Z,3.70
2017-12-30T01:47:03.517Z,3.70
2017-12-30T01:49:31.097Z,3.70
2017-12-30T01:51:58.636Z,3.60
2017-12-30T01:54:26.195Z,3.50
2017-12-30T01:56:53.738Z,3.50
2017-12-30T01:59:22.058Z,3.40
2017-12-30T02:01:50.357Z,3.30
2017-12-30T02:04:18.667Z,3.30
2017-12-30T02:06:46.950Z,3.30
2017-12-30T02:09:14.516Z,3.30
2017-12-30T02:11:42.065Z,3.20
2017-12-30T02:14:09.624Z,3.20
2017-12-30T02:16:37.915Z,3.30
2017-12-30T02:19:05.438Z,3.30
2017-12-30T02:21:33.757Z,3.20
2017-12-30T02:24:01.297Z,3.20
2017-12-30T02:26:28.944Z,3.20
2017-12-30T02:28:56.466Z,3.20
2017-12-30T02:31:24.021Z,3.20
2017-12-30T02:33:51.558Z,3.20
2017-12-30T02:36:19.886Z,3.30
2017-12-30T02:38:47.410Z,3.30
2017-12-30T02:41:14.971Z,3.40
2017-12-30T02:43:42.504Z,3.50
2017-12-30T02:46:10.829Z,3.30
2017-12-30T02:48:39.111Z,3.30
2017-12-30T02:51:06.653Z,3.30
2017-12-30T02:53:34.183Z,3.30
2017-12-30T02:56:02.502Z,3.30
2017-12-30T02:58:30.806Z,3.40
2017-12-30T03:00:59.121Z,3.30
2017-12-30T03:03:27.412Z,3.30
2017-12-30T03:05:56.481Z,3.20
2017-12-30T03:08:24.015Z,3.20
2017-12-30T03:10:52.348Z,3.10
2017-12-30T03:13:19.878Z,3.10
2017-12-30T03:15:48.185Z,3.00
2017-12-30T03:18:15.707Z,3.00
2017-12-30T03:20:44.031Z,2.90
2017-12-30T03:23:11.573Z,2.90
2017-12-30T03:25:39.129Z,2.90
2017-12-30T03:28:06.654Z,2.90
2017-12-30T03:30:34.266Z,2.80
2017-12-30T03:33:01.790Z,2.70
2017-12-30T03:35:29.329Z,2.70
2017-12-30T03:37:57.660Z,2.60
2017-12-30T03:40:25.183Z,2.60
2017-12-30T03:42:52.731Z,2.60
2017-12-30T03:45:20.264Z,2.60
2017-12-30T03:47:47.806Z,2.60
2017-12-30T03:50:15.339Z,2.50
2017-12-30T03:52:42.882Z,2.60
2017-12-30T03:55:10.421Z,2.60
2017-12-30T03:57:38.729Z,2.70
2017-12-30T04:00:06.256Z,2.70
2017-12-30T04:02:33.812Z,2.80
2017-12-30T04:05:02.098Z,2.90
2017-12-30T04:07:29.643Z,2.80
2017-12-30T04:09:57.180Z,2.90
2017-12-30T04:12:25.593Z,2.90
2017-12-30T04:14:53.884Z,2.90
2017-12-30T04:17:22.210Z,2.90
2017-12-30T04:19:49.734Z,2.90
2017-12-30T04:22:17.279Z,2.90
2017-12-30T04:24:44.793Z,2.90
2017-12-30T04:27:12.350Z,2.80
2017-12-30T04:29:39.869Z,2.70
2017-12-30T04:32:07.418Z,2.70
2017-12-30T04:34:35.706Z,2.60
2017-12-30T04:37:04.047Z,2.60
2017-12-30T04:39:31.579Z,2.60
2017-12-30T04:41:59.125Z,2.60
2017-12-30T04:44:26.642Z,2.60
2017-12-30T04:46:54.194Z,2.50
2017-12-30T04:49:21.738Z,2.50
2017-12-30T04:51:50.013Z,2.60
2017-12-30T04:54:17.563Z,2.60
2017-12-30T04:56:45.095Z,2.60
2017-12-30T04:59:12.657Z,2.60
2017-12-30T05:01:40.189Z,2.70
2017-12-30T05:04:08.515Z,2.60
2017-12-30T05:06:36.090Z,2.60
2017-12-30T05:09:03.631Z,2.60
2017-12-30T05:11:31.147Z,2.60
2017-12-30T05:13:58.778Z,2.70
2017-12-30T05:16:26.316Z,2.80
2017-12-30T05:18:54.634Z,3.00
2017-12-30T05:21:22.157Z,3.00
2017-12-30T05:23:49.746Z,3.00
2017-12-30T05:26:17.247Z,3.00
2017-12-30T05:28:46.125Z,3.00
2017-12-30T05:31:13.660Z,3.00
2017-12-30T05:33:41.981Z,3.20
2017-12-30T05:36:09.519Z,3.10
2017-12-30T05:38:37.062Z,3.20
2017-12-30T05:41:04.584Z,3.30
2017-12-30T05:43:33.637Z,3.40
2017-12-30T05:46:01.924Z,3.50
2017-12-30T05:48:29.468Z,3.40
2017-12-30T05:50:57.000Z,3.50
2017-12-30T05:53:25.317Z,3.70
2017-12-30T05:55:53.607Z,3.90
2017-12-30T05:58:21.928Z,4.00
2017-12-30T06:00:49.459Z,4.00
2017-12-30T06:03:16.986Z,4.00
2017-12-30T06:05:45.307Z,4.20
2017-12-30T06:08:12.843Z,4.10
2017-12-30T06:10:41.890Z,4.10
2017-12-30T06:13:10.209Z,4.10
2017-12-30T06:15:37.764Z,4.00
2017-12-30T06:18:05.284Z,4.10
2017-12-30T06:20:32.824Z,4.10
2017-12-30T06:23:00.353Z,4.10
2017-12-30T06:25:27.910Z,4.20
2017-12-30T06:27:55.461Z,4.20
2017-12-30T06:30:23.011Z,4.20
2017-12-30T06:32:50.541Z,4.20
2017-12-30T06:35:18.097Z,4.10
2017-12-30T06:37:45.871Z,4.10
2017-12-30T06:40:13.428Z,4.10
2017-12-30T06:42:41.735Z,4.00
2017-12-30T06:45:10.045Z,4.00
2017-12-30T06:47:38.346Z,4.00
2017-12-30T06:50:06.668Z,3.90
2017-12-30T06:52:34.190Z,3.90
2017-12-30T06:55:01.726Z,3.90
2017-12-30T06:57:29.272Z,3.90
2017-12-30T06:59:56.814Z,3.80
2017-12-30T07:02:24.342Z,3.70
2017-12-30T07:04:51.893Z,3.60
2017-12-30T07:07:19.461Z,3.60
2017-12-30T07:09:47.001Z,3.60
2017-12-30T07:12:14.639Z,3.60
2017-12-30T07:14:42.211Z,3.60
2017-12-30T07:17:09.731Z,3.50
2017-12-30T07:19:37.254Z,3.60
2017-12-30T07:22:05.578Z,3.60
2017-12-30T07:24:33.114Z,3.60
2017-12-30T07:27:00.656Z,3.60
2017-12-30T07:29:28.191Z,3.60
2017-12-30T07:31:55.745Z,3.60
2017-12-30T07:34:23.267Z,3.60
2017-12-30T07:36:51.618Z,3.70
2017-12-30T07:39:19.163Z,3.60
2017-12-30T07:41:47.480Z,3.70
2017-12-30T07:44:15.012Z,3.60
2017-12-30T07:46:42.555Z,3.70
2017-12-30T07:49:10.132Z,3.70
2017-12-30T07:51:38.467Z,3.70
2017-12-30T07:54:05.999Z,3.70
2017-12-30T07:56:33.538Z,3.70
2017-12-30T07:59:01.111Z,3.60
2017-12-30T08:01:28.658Z,3.60
2017-12-30T08:03:57.035Z,3.60
2017-12-30T08:06:24.584Z,3.60
2017-12-30T08:08:52.102Z,3.60
2017-12-30T08:11:19.743Z,3.60
2017-12-30T08:13:47.257Z,3.60
2017-12-30T08:16:14.798Z,3.60
2017-12-30T08:18:42.327Z,3.60
2017-12-30T08:21:09.888Z,3.60
2017-12-30T08:23:37.444Z,3.60
2017-12-30T08:26:05.753Z,3.60
2017-12-30T08:28:33.269Z,3.60
2017-12-30T08:31:00.834Z,3.60
2017-12-30T08:33:28.364Z,3.60
2017-12-30T08:35:55.882Z,3.60
2017-12-30T08:38:24.214Z,3.70
2017-12-30T08:40:51.735Z,3.70
2017-12-30T08:43:19.288Z,3.70
2017-12-30T08:45:46.931Z,3.70
2017-12-30T08:48:14.478Z,3.70
2017-12-30T08:50:41.997Z,3.70
2017-12-30T08:53:09.565Z,3.80
2017-12-30T08:55:37.103Z,3.80
2017-12-30T08:58:04.661Z,3.80
2017-12-30T09:00:32.947Z,3.90
2017-12-30T09:03:00.497Z,3.90
2017-12-30T09:05:28.025Z,3.90
2017-12-30T09:07:56.337Z,4.00
2017-12-30T09:10:24.625Z,4.10
2017-12-30T09:12:52.184Z,4.10
2017-12-30T09:15:19.706Z,4.20
2017-12-30T09:17:47.330Z,4.30
2017-12-30T09:20:14.860Z,4.40
2017-12-30T09:22:42.393Z,4.40
2017-12-30T09:25:09.977Z,4.40
2017-12-30T09:27:37.550Z,4.40
2017-12-30T09:30:05.849Z,4.50
2017-12-30T09:32:34.172Z,4.50
2017-12-30T09:35:01.698Z,4.50
2017-12-30T09:37:29.989Z,4.60
2017-12-30T09:39:58.104Z,4.60
2017-12-30T09:42:25.622Z,4.70
2017-12-30T09:44:53.944Z,4.80
2017-12-30T09:47:21.483Z,4.80
2017-12-30T09:49:49.049Z,4.80
2017-12-30T09:52:16.582Z,4.80
2017-12-30T09:54:44.869Z,4.90
2017-12-30T09:57:13.182Z,5.00
2017-12-30T09:59:40.726Z,5.10
2017-12-30T10:02:08.244Z,5.10
2017-12-30T10:04:36.547Z,5.20
2017-12-30T10:07:04.848Z,5.20
2017-12-30T10:09:33.157Z,5.20
2017-12-30T10:12:00.689Z,5.20
2017-12-30T10:14:28.254Z,5.20
2017-12-30T10:16:55.774Z,5.30
2017-12-30T10:19:23.318Z,5.30
2017-12-30T10:21:50.838Z,5.30
2017-12-30T10:24:18.393Z,5.40
2017-12-30T10:26:45.916Z,5.40
2017-12-30T10:29:13.468Z,5.40
2017-12-30T10:31:41.745Z,5.50
2017-12-30T10:34:09.288Z,5.50
2017-12-30T10:36:37.590Z,5.60
2017-12-30T10:39:05.888Z,5.60
2017-12-30T10:41:33.438Z,5.60
2017-12-30T10:44:00.976Z,5.80
2017-12-30T10:46:29.297Z,5.90
2017-12-30T10:48:56.824Z,5.90
2017-12-30T10:51:24.371Z,5.90
2017-12-30T10:53:51.899Z,6.00
2017-12-30T10:56:19.461Z,6.10
2017-12-30T10:58:46.986Z,6.20
2017-12-30T11:01:14.534Z,6.20
2017-12-30T11:03:42.066Z,6.20
2017-12-30T11:06:10.389Z,6.30
2017-12-30T11:08:37.933Z,6.20
2017-12-30T11:11:06.271Z,6.30
2017-12-30T11:13:33.824Z,6.30
2017-12-30T11:16:01.460Z,6.30
2017-12-30T11:18:28.991Z,6.40
2017-12-30T11:20:56.542Z,6.40
2017-12-30T11:25:56.806Z,6.60
2017-12-30T11:28:24.331Z,6.60
2017-12-30T11:30:51.904Z,6.60
2017-12-30T11:33:19.461Z,6.60
2017-12-30T11:35:47.768Z,6.60
2017-12-30T11:38:16.089Z,6.70
2017-12-30T11:40:43.613Z,6.70
2017-12-30T11:43:11.181Z,6.70
2017-12-30T11:45:38.726Z,6.70
2017-12-30T11:48:07.011Z,6.80
2017-12-30T11:50:35.656Z,6.90
2017-12-30T11:53:03.234Z,6.90
2017-12-30T11:55:30.754Z,7.00
2017-12-30T11:57:58.298Z,7.00
2017-12-30T12:00:26.625Z,7.10
2017-12-30T12:02:54.186Z,7.10
2017-12-30T12:05:22.484Z,7.10
2017-12-30T12:07:51.031Z,7.10
2017-12-30T12:10:18.560Z,7.10
2017-12-30T12:12:46.112Z,7.30
2017-12-30T12:15:13.637Z,7.40
2017-12-30T12:17:41.222Z,7.60
2017-12-30T12:20:09.528Z,7.80
2017-12-30T12:22:37.099Z,7.80
2017-12-30T12:25:04.628Z,7.90
2017-12-30T12:27:32.950Z,7.90
2017-12-30T12:30:00.483Z,7.90
2017-12-30T12:32:28.037Z,7.90
2017-12-30T12:34:56.345Z,7.90
2017-12-30T12:37:24.116Z,7.90
2017-12-30T12:39:51.682Z,7.90
2017-12-30T12:42:19.200Z,8.00
2017-12-30T12:44:47.606Z,8.10
2017-12-30T12:47:16.661Z,8.10
2017-12-30T12:49:44.212Z,8.10
2017-12-30T12:52:12.586Z,8.30
2017-12-30T12:54:40.141Z,8.30
2017-12-30T12:57:07.688Z,8.40
2017-12-30T12:59:35.997Z,8.40
2017-12-30T13:02:03.549Z,8.30
2017-12-30T13:04:31.867Z,8.40
2017-12-30T13:06:59.387Z,8.40
2017-12-30T13:09:27.026Z,8.40
2017-12-30T13:11:54.546Z,8.40
2017-12-30T13:14:22.091Z,8.40
2017-12-30T13:16:49.606Z,8.50
2017-12-30T13:19:17.155Z,8.70
2017-12-30T13:21:45.459Z,8.90
2017-12-30T13:24:13.016Z,8.90
2017-12-30T13:26:41.303Z,9.10
2017-12-30T13:29:08.866Z,9.10
2017-12-30T13:31:37.160Z,9.30
2017-12-30T13:34:04.725Z,9.30
2017-12-30T13:36:32.259Z,9.30
2017-12-30T13:39:00.572Z,9.40
2017-12-30T13:41:28.210Z,9.40
2017-12-30T13:43:56.534Z,10.10
2017-12-30T13:46:24.073Z,10.10
2017-12-30T13:48:51.827Z,10.20
2017-12-30T13:51:20.635Z,10.50
2017-12-30T13:53:48.160Z,11.20
2017-12-30T13:56:15.721Z,11.10
2017-12-30T13:58:43.248Z,11.20
2017-12-30T14:01:10.817Z,11.30
2017-12-30T14:03:38.399Z,11.60
2017-12-30T14:06:05.959Z,11.50
2017-12-30T14:08:33.542Z,11.50
2017-12-30T14:11:01.095Z,11.50
2017-12-30T14:13:29.398Z,11.40
2017-12-30T14:15:56.987Z,11.40
2017-12-30T14:18:25.291Z,11.80
2017-12-30T14:20:52.835Z,11.80
2017-12-30T14:23:21.862Z,11.80
2017-12-30T14:25:49.446Z,11.70
2017-12-30T14:28:17.047Z,11.80
2017-12-30T14:30:45.471Z,11.60
2017-12-30T14:33:13.009Z,11.60
2017-12-30T14:35:41.325Z,11.00
2017-12-30T14:38:08.857Z,11.00
2017-12-30T14:40:36.409Z,10.70
2017-12-30T14:43:04.702Z,10.30
2017-12-30T14:45:32.302Z,10.30
2017-12-30T14:47:59.839Z,10.10
2017-12-30T14:50:27.442Z,10.10
2017-12-30T14:52:54.980Z,10.00
2017-12-30T14:55:22.537Z,9.90
2017-12-30T14:57:50.717Z,9.80
2017-12-30T15:00:18.266Z,9.80
2017-12-30T15:02:46.820Z,9.90
2017-12-30T15:05:15.132Z,9.90
2017-12-30T15:07:42.677Z,9.90
2017-12-30T15:10:10.291Z,10.00
2017-12-30T15:12:37.842Z,10.30
2017-12-30T15:15:06.135Z,10.30
2017-12-30T15:17:33.697Z,10.30
2017-12-30T15:20:01.994Z,10.50
2017-12-30T15:22:29.546Z,10.40
2017-12-30T15:24:57.839Z,10.90
2017-12-30T15:27:25.381Z,10.90
2017-12-30T15:29:52.916Z,10.90
2017-12-30T15:32:21.230Z,11.00
2017-12-30T15:34:48.809Z,11.10
2017-12-30T15:37:16.358Z,11.10
2017-12-30T15:39:44.707Z,10.90
2017-12-30T15:42:13.018Z,11.00
2017-12-30T15:44:40.556Z,11.00
2017-12-30T15:47:08.101Z,11.30
2017-12-30T15:49:36.390Z,11.30
2017-12-30T15:52:04.781Z,11.40
2017-12-30T15:54:32.334Z,11.40
2017-12-30T15:57:00.625Z,11.20
2017-12-30T15:59:28.218Z,11.20
2017-12-30T16:01:55.798Z,11.20
2017-12-30T16:04:23.343Z,11.20
2017-12-30T16:06:52.622Z,11.30
2017-12-30T16:09:21.252Z,11.20
2017-12-30T16:11:48.755Z,11.20
2017-12-30T16:14:17.244Z,11.20
2017-12-30T16:16:44.831Z,11.20
2017-12-30T16:19:13.145Z,11.20
2017-12-30T16:21:40.766Z,11.20
2017-12-30T16:24:08.310Z,11.30
2017-12-30T16:26:37.339Z,11.30
2017-12-30T16:29:04.895Z,11.30
2017-12-30T16:31:33.242Z,11.40
2017-12-30T16:34:00.850Z,11.40
2017-12-30T16:36:28.432Z,11.40
2017-12-30T16:38:56.071Z,11.60
2017-12-30T16:41:23.646Z,11.50
2017-12-30T16:43:52.015Z,11.70
2017-12-30T16:46:19.538Z,11.70
2017-12-30T16:48:47.232Z,11.90
2017-12-30T16:51:14.812Z,11.70
2017-12-30T16:53:42.381Z,11.70
2017-12-30T16:56:09.922Z,11.70
2017-12-30T16:58:37.477Z,11.70
2017-12-30T17:01:05.776Z,11.80
2017-12-30T17:03:33.363Z,11.80
2017-12-30T17:06:01.665Z,11.80
2017-12-30T17:08:30.162Z,12.00
2017-12-30T17:10:58.469Z,12.10
2017-12-30T17:13:26.097Z,12.00
2017-12-30T17:15:53.659Z,12.30
2017-12-30T17:18:22.009Z,12.10
2017-12-30T17:20:51.322Z,12.10
2017-12-30T17:23:18.850Z,12.10
2017-12-30T17:25:46.409Z,12.30
2017-12-30T17:28:13.933Z,12.30
2017-12-30T17:30:41.482Z,12.50
2017-12-30T17:33:09.056Z,12.50
2017-12-30T17:35:36.604Z,12.60
2017-12-30T17:38:04.136Z,12.60
2017-12-30T17:40:31.742Z,12.50
2017-12-30T17:42:59.311Z,12.50
2017-12-30T17:45:26.921Z,12.80
2017-12-30T17:47:54.461Z,12.70
2017-12-30T17:50:22.161Z,12.60
2017-12-30T17:52:50.392Z,12.70
2017-12-30T17:55:17.981Z,12.70
2017-12-30T17:57:45.573Z,12.60
2017-12-30T18:00:13.896Z,12.90
2017-12-30T18:02:41.525Z,12.80
2017-12-30T18:05:09.084Z,12.70
2017-12-30T18:07:36.661Z,12.60
2017-12-30T18:10:04.268Z,12.60
2017-12-30T18:12:32.634Z,12.60
2017-12-30T18:15:00.242Z,12.60
2017-12-30T18:17:27.840Z,12.50
2017-12-30T18:19:56.205Z,12.30
2017-12-30T18:22:23.803Z,12.30
2017-12-30T18:24:52.732Z,12.20
2017-12-30T18:27:20.319Z,12.20
2017-12-30T18:29:47.905Z,12.00
2017-12-30T18:32:15.510Z,11.90
2017-12-30T18:34:43.868Z,11.70
2017-12-30T18:37:11.434Z,11.70
2017-12-30T18:39:39.008Z,11.70
2017-12-30T18:42:06.609Z,11.60
2017-12-30T18:44:34.186Z,11.50
2017-12-30T18:47:01.745Z,11.50
2017-12-30T18:49:29.337Z,11.50
2017-12-30T18:51:56.947Z,11.40
2017-12-30T18:54:24.565Z,11.50
2017-12-30T18:56:52.114Z,11.40
2017-12-30T18:59:19.704Z,11.40
2017-12-30T19:01:47.329Z,11.50
2017-12-30T19:04:14.913Z,11.50
2017-12-30T19:06:42.515Z,11.50
2017-12-30T19:09:10.806Z,11.50
2017-12-30T19:11:38.406Z,11.40
2017-12-30T19:14:05.998Z,11.40
2017-12-30T19:16:34.348Z,11.30
2017-12-30T19:19:01.927Z,11.30
2017-12-30T19:21:29.534Z,11.30
2017-12-30T19:23:57.119Z,11.30
2017-12-30T19:26:24.721Z,11.30
2017-12-30T19:28:53.087Z,11.20
2017-12-30T19:31:20.793Z,11.20
2017-12-30T19:33:48.391Z,11.20
2017-12-30T19:36:15.970Z,11.20
2017-12-30T19:38:43.570Z,11.10
2017-12-30T19:41:11.160Z,11.10
2017-12-30T19:43:39.523Z,11.10
2017-12-30T19:46:07.150Z,11.10
2017-12-30T19:48:35.513Z,11.00
2017-12-30T19:51:03.090Z,11.00
2017-12-30T19:53:30.689Z,11.00
2017-12-30T19:55:58.265Z,10.90
2017-12-30T19:58:25.862Z,10.80
2017-12-30T20:00:53.437Z,10.70
2017-12-30T20:03:21.052Z,10.70
2017-12-30T20:05:48.647Z,10.70
2017-12-30T20:08:16.264Z,10.60
2017-12-30T20:10:44.605Z,10.50
2017-12-30T20:13:12.197Z,10.50
2017-12-30T20:15:39.780Z,10.60
2017-12-30T20:18:07.400Z,10.50
2017-12-30T20:20:36.495Z,10.40
2017-12-30T20:23:04.098Z,10.40
2017-12-30T20:25:31.672Z,10.40
2017-12-30T20:27:59.283Z,10.40
2017-12-30T20:30:26.866Z,10.40
2017-12-30T20:32:54.465Z,10.40
2017-12-30T20:35:22.068Z,10.40
2017-12-30T20:37:49.726Z,10.40
2017-12-30T20:40:17.324Z,10.40
2017-12-30T20:42:45.667Z,10.40
2017-12-30T20:45:13.289Z,10.40
2017-12-30T20:47:40.909Z,10.50
2017-12-30T20:50:08.587Z,10.50
2017-12-30T20:52:36.167Z,10.50
2017-12-30T20:55:03.774Z,10.60
2017-12-30T20:57:31.365Z,10.60
2017-12-30T20:59:59.736Z,10.60
2017-12-30T21:02:28.071Z,10.70
2017-12-30T21:04:55.682Z,10.70
2017-12-30T21:07:23.254Z,10.60
2017-12-30T21:09:50.996Z,10.70
2017-12-30T21:12:18.583Z,10.80
2017-12-30T21:14:46.185Z,10.80
2017-12-30T21:17:14.541Z,10.90
2017-12-30T21:19:42.812Z,10.80
2017-12-30T21:22:11.172Z,10.90
2017-12-30T21:24:38.781Z,10.90
2017-12-30T21:27:07.138Z,10.90
2017-12-30T21:29:34.761Z,10.90
2017-12-30T21:32:03.117Z,11.00
2017-12-30T21:34:30.726Z,10.90
2017-12-30T21:36:59.142Z,10.90
2017-12-30T21:39:26.752Z,10.90
2017-12-30T21:41:55.178Z,10.90
2017-12-30T21:44:22.782Z,10.90
2017-12-30T21:46:50.385Z,10.90
2017-12-30T21:49:17.995Z,10.90
2017-12-30T21:51:45.588Z,11.00
2017-12-30T21:54:13.243Z,10.90
2017-12-30T21:56:40.816Z,10.90
2017-12-30T21:59:08.389Z,10.90
2017-12-30T22:01:36.002Z,11.00
2017-12-30T22:04:03.582Z,10.90
2017-12-30T22:06:31.217Z,11.00
2017-12-30T22:08:59.572Z,11.00
2017-12-30T22:11:27.213Z,11.00
2017-12-30T22:13:55.563Z,11.10
2017-12-30T22:16:23.154Z,11.00
2017-12-30T22:18:51.633Z,11.00
2017-12-30T22:21:19.251Z,11.00
2017-12-30T22:23:46.825Z,11.00
2017-12-30T22:26:14.432Z,11.00
2017-12-30T22:28:42.013Z,11.00
2017-12-30T22:31:09.611Z,11.00
2017-12-30T22:33:37.204Z,11.10
2017-12-30T22:36:04.813Z,11.10
2017-12-30T22:38:32.402Z,11.10
2017-12-30T22:41:00.013Z,11.00
2017-12-30T22:43:27.679Z,11.00
2017-12-30T22:45:55.296Z,11.10
2017-12-30T22:48:22.884Z,11.10
2017-12-30T22:50:50.497Z,11.10
2017-12-30T22:53:18.095Z,11.20
2017-12-30T22:55:46.461Z,11.10
2017-12-30T22:58:14.043Z,11.10
2017-12-30T23:00:47.329Z,11.20
2017-12-30T23:03:15.669Z,11.30
2017-12-30T23:05:43.265Z,11.30
2017-12-30T23:08:11.401Z,11.30
2017-12-30T23:10:40.638Z,11.30
2017-12-30T23:13:08.221Z,11.30
2017-12-30T23:15:35.793Z,11.40
2017-12-30T23:18:04.154Z,11.30
2017-12-30T23:20:31.726Z,11.20
2017-12-30T23:22:59.387Z,11.30
2017-12-30T23:25:26.976Z,11.30
2017-12-30T23:27:54.598Z,11.30
2017-12-30T23:30:22.321Z,11.40
2017-12-30T23:32:50.692Z,11.40
2017-12-30T23:35:18.287Z,11.40
2017-12-30T23:37:45.904Z,11.40
2017-12-30T23:40:14.245Z,11.50
2017-12-30T23:42:41.846Z,11.50
2017-12-30T23:45:09.442Z,11.50
2017-12-30T23:47:37.045Z,11.50
2017-12-30T23:50:04.617Z,11.50
2017-12-30T23:52:32.213Z,11.40
2017-12-30T23:54:59.861Z,11.40
2017-12-30T23:57:27.474Z,11.40
2017-12-30T23:59:55.050Z,11.40
